createdAt,value
2019-03-25T00:00:00.699Z,7.10
2019-03-25T00:02:28.160Z,7.31
2019-03-25T00:04:55.597Z,7.51
2019-03-25T00:07:23.051Z,7.53
2019-03-25T00:09:53.529Z,7.20
2019-03-25T00:12:21.011Z,7.18
2019-03-25T00:14:48.453Z,7.30
2019-03-25T00:17:15.899Z,7.31
2019-03-25T00:19:43.523Z,6.96
2019-03-25T00:22:10.966Z,7.13
2019-03-25T00:24:39.258Z,7.09
2019-03-25T00:27:05.883Z,6.99
2019-03-25T00:29:33.302Z,6.75
2019-03-25T00:32:00.752Z,6.97
2019-03-25T00:34:28.236Z,6.58
2019-03-25T00:36:55.675Z,6.73
2019-03-25T00:39:23.151Z,6.59
2019-03-25T00:41:50.573Z,6.71
2019-03-25T00:44:18.733Z,6.62
2019-03-25T00:46:46.163Z,6.56
2019-03-25T00:49:13.987Z,6.55
2019-03-25T00:51:41.423Z,6.48
2019-03-25T00:54:08.870Z,6.79
2019-03-25T00:56:36.352Z,6.59
2019-03-25T00:59:03.782Z,6.46
2019-03-25T01:01:31.495Z,6.21
2019-03-25T01:03:58.958Z,6.47
2019-03-25T01:06:26.373Z,6.30
2019-03-25T01:08:53.809Z,6.30
2019-03-25T01:11:21.242Z,6.37
2019-03-25T01:13:48.656Z,6.17
2019-03-25T01:16:16.111Z,6.31
2019-03-25T01:18:45.359Z,6.20
2019-03-25T01:21:12.873Z,6.05
2019-03-25T01:23:40.323Z,6.14
2019-03-25T01:26:07.754Z,6.35
2019-03-25T01:28:35.186Z,6.40
2019-03-25T01:31:02.630Z,6.14
2019-03-25T01:33:30.060Z,6.34
2019-03-25T01:35:57.555Z,6.12
2019-03-25T01:38:24.998Z,6.19
2019-03-25T01:40:52.409Z,6.07
2019-03-25T01:43:19.865Z,6.35
2019-03-25T01:45:47.271Z,6.34
2019-03-25T01:48:15.113Z,6.03
2019-03-25T01:50:42.575Z,6.05
2019-03-25T01:53:10.299Z,6.12
2019-03-25T01:55:37.863Z,6.21
2019-03-25T01:58:05.358Z,6.25
2019-03-25T02:00:32.819Z,6.51
2019-03-25T02:03:00.291Z,6.52
2019-03-25T02:05:27.786Z,6.30
2019-03-25T02:07:55.243Z,6.24
2019-03-25T02:10:22.730Z,6.32
2019-03-25T02:12:50.205Z,6.44
2019-03-25T02:15:17.709Z,6.45
2019-03-25T02:17:45.597Z,6.32
2019-03-25T02:20:13.103Z,6.48
2019-03-25T02:22:40.661Z,6.25
2019-03-25T02:25:08.130Z,6.53
2019-03-25T02:27:36.576Z,6.65
2019-03-25T02:30:04.894Z,6.50
2019-03-25T02:32:32.380Z,6.34
2019-03-25T02:34:59.885Z,6.22
2019-03-25T02:37:27.397Z,6.29
2019-03-25T02:39:55.681Z,6.34
2019-03-25T02:42:23.279Z,6.21
2019-03-25T02:44:50.779Z,6.44
2019-03-25T02:47:18.267Z,6.29
2019-03-25T02:49:46.312Z,6.24
2019-03-25T02:52:13.834Z,6.23
2019-03-25T02:54:41.347Z,6.21
2019-03-25T02:57:08.837Z,6.28
2019-03-25T02:59:36.343Z,6.34
2019-03-25T03:02:03.794Z,6.22
2019-03-25T03:04:31.295Z,6.40
2019-03-25T03:06:58.758Z,6.50
2019-03-25T03:09:26.986Z,6.37
2019-03-25T03:11:54.531Z,6.69
2019-03-25T03:14:22.044Z,6.51
2019-03-25T03:16:49.514Z,6.40
2019-03-25T03:19:16.969Z,6.68
2019-03-25T03:21:44.456Z,6.41
2019-03-25T03:24:11.938Z,6.40
2019-03-25T03:26:39.425Z,6.38
2019-03-25T03:29:06.886Z,6.41
2019-03-25T03:31:34.359Z,6.52
2019-03-25T03:34:01.879Z,6.41
2019-03-25T03:36:29.393Z,6.44
2019-03-25T03:38:56.849Z,6.68
2019-03-25T03:41:24.302Z,6.44
2019-03-25T03:43:51.793Z,6.41
2019-03-25T03:46:19.280Z,6.22
2019-03-25T03:48:47.443Z,6.14
2019-03-25T03:51:14.902Z,6.41
2019-03-25T03:53:42.404Z,6.38
2019-03-25T03:56:13.382Z,6.41
2019-03-25T03:58:37.382Z,6.54
2019-03-25T04:01:04.861Z,6.35
2019-03-25T04:03:32.297Z,6.42
2019-03-25T04:05:59.709Z,6.48
2019-03-25T04:08:27.143Z,6.39
2019-03-25T04:10:54.581Z,6.31
2019-03-25T04:13:22.043Z,6.04
2019-03-25T04:15:49.485Z,6.22
2019-03-25T04:18:16.935Z,5.96
2019-03-25T04:20:44.348Z,6.02
2019-03-25T04:23:11.804Z,6.06
2019-03-25T04:25:39.233Z,6.02
2019-03-25T04:28:06.698Z,6.21
2019-03-25T04:30:34.153Z,6.01
2019-03-25T04:33:01.575Z,6.03
2019-03-25T04:35:29.023Z,6.26
2019-03-25T04:37:56.758Z,6.34
2019-03-25T04:40:23.914Z,6.62
2019-03-25T04:42:51.339Z,6.08
2019-03-25T04:45:19.916Z,6.23
2019-03-25T04:47:47.429Z,6.34
2019-03-25T04:50:14.902Z,5.91
2019-03-25T04:52:42.348Z,6.39
2019-03-25T04:55:09.758Z,6.20
2019-03-25T04:57:37.187Z,6.37
2019-03-25T05:00:04.613Z,6.28
2019-03-25T05:02:32.048Z,6.82
2019-03-25T05:04:59.469Z,6.58
2019-03-25T05:07:26.932Z,6.38
2019-03-25T05:09:54.380Z,6.42
2019-03-25T05:12:21.847Z,6.27
2019-03-25T05:14:49.261Z,6.44
2019-03-25T05:17:16.746Z,6.51
2019-03-25T05:19:44.178Z,6.28
2019-03-25T05:22:11.616Z,6.09
2019-03-25T05:24:39.068Z,6.50
2019-03-25T05:27:06.514Z,6.51
2019-03-25T05:29:33.964Z,6.26
2019-03-25T05:32:01.647Z,6.83
2019-03-25T05:34:29.102Z,6.98
2019-03-25T05:36:56.520Z,7.24
2019-03-25T05:39:23.955Z,6.67
2019-03-25T05:41:51.378Z,7.10
2019-03-25T05:44:19.678Z,7.04
2019-03-25T05:46:47.130Z,7.04
2019-03-25T05:49:14.548Z,6.01
2019-03-25T05:51:41.992Z,5.45
2019-03-25T05:54:09.446Z,5.15
2019-03-25T05:56:36.877Z,5.28
2019-03-25T05:59:04.341Z,5.60
2019-03-25T06:01:31.772Z,5.37
2019-03-25T06:03:59.223Z,5.68
2019-03-25T06:06:26.704Z,5.78
2019-03-25T06:08:54.159Z,5.75
2019-03-25T06:11:21.598Z,6.00
2019-03-25T06:13:49.095Z,5.96
2019-03-25T06:16:16.571Z,6.00
2019-03-25T06:18:44.330Z,5.80
2019-03-25T06:21:11.759Z,5.79
2019-03-25T06:23:39.224Z,5.81
2019-03-25T06:26:06.637Z,5.67
2019-03-25T06:28:34.123Z,5.77
2019-03-25T06:31:01.567Z,5.82
2019-03-25T06:33:29.140Z,5.47
2019-03-25T06:35:56.546Z,5.69
2019-03-25T06:38:23.978Z,5.62
2019-03-25T06:40:51.432Z,5.94
2019-03-25T06:43:18.867Z,6.11
2019-03-25T06:45:46.330Z,6.01
2019-03-25T06:48:13.802Z,6.24
2019-03-25T06:50:41.258Z,6.18
2019-03-25T06:53:08.731Z,6.18
2019-03-25T06:55:36.172Z,5.95
2019-03-25T06:58:03.610Z,6.16
2019-03-25T07:00:31.037Z,6.01
2019-03-25T07:02:58.495Z,6.14
2019-03-25T07:05:25.936Z,6.05
2019-03-25T07:07:53.365Z,6.37
2019-03-25T07:10:32.008Z,5.91
2019-03-25T07:12:59.488Z,6.04
2019-03-25T07:15:26.943Z,5.93
2019-03-25T07:17:54.407Z,6.08
2019-03-25T07:20:21.901Z,6.00
2019-03-25T07:22:49.358Z,5.88
2019-03-25T07:25:16.795Z,5.95
2019-03-25T07:27:44.231Z,5.79
2019-03-25T07:30:11.718Z,5.95
2019-03-25T07:32:39.146Z,6.03
2019-03-25T07:35:06.570Z,5.95
2019-03-25T07:37:34.028Z,6.10
2019-03-25T07:40:01.449Z,6.24
2019-03-25T07:42:28.905Z,5.87
2019-03-25T07:44:56.332Z,6.03
2019-03-25T07:47:23.770Z,6.10
2019-03-25T07:49:51.946Z,6.03
2019-03-25T07:52:19.385Z,6.13
2019-03-25T07:54:46.841Z,6.09
2019-03-25T07:57:14.352Z,5.99
2019-03-25T07:59:41.792Z,6.19
2019-03-25T08:02:09.327Z,6.18
2019-03-25T08:04:38.674Z,6.37
2019-03-25T08:07:04.306Z,6.43
2019-03-25T08:09:31.771Z,6.39
2019-03-25T08:11:59.204Z,6.32
2019-03-25T08:14:26.682Z,6.37
2019-03-25T08:16:54.132Z,6.39
2019-03-25T08:19:22.504Z,6.31
2019-03-25T08:21:49.921Z,6.45
2019-03-25T08:24:17.382Z,6.09
2019-03-25T08:26:44.846Z,6.31
2019-03-25T08:29:12.293Z,6.28
2019-03-25T08:31:39.730Z,6.23
2019-03-25T08:34:07.176Z,6.35
2019-03-25T08:36:34.622Z,6.27
2019-03-25T08:39:02.075Z,6.32
2019-03-25T08:41:29.489Z,6.25
2019-03-25T08:43:56.963Z,6.19
2019-03-25T08:46:24.391Z,6.20
2019-03-25T08:48:51.834Z,5.79
2019-03-25T08:51:19.267Z,6.03
2019-03-25T08:53:46.689Z,5.84
2019-03-25T08:56:14.123Z,5.85
2019-03-25T08:58:41.544Z,5.17
2019-03-25T09:01:09.020Z,5.33
2019-03-25T09:03:36.478Z,5.43
2019-03-25T09:06:03.893Z,5.67
2019-03-25T09:08:31.368Z,5.59
2019-03-25T09:10:58.835Z,5.34
2019-03-25T09:13:26.271Z,5.58
2019-03-25T09:15:53.692Z,5.66
2019-03-25T09:18:21.196Z,5.76
2019-03-25T09:20:48.633Z,5.53
2019-03-25T09:23:16.084Z,5.24
2019-03-25T09:25:43.527Z,5.57
2019-03-25T09:28:10.981Z,5.77
2019-03-25T09:30:59.248Z,5.50
2019-03-25T09:33:26.667Z,5.53
2019-03-25T09:35:54.698Z,5.57
2019-03-25T09:38:22.135Z,5.70
2019-03-25T09:40:49.612Z,5.87
2019-03-25T09:43:17.043Z,5.89
2019-03-25T09:45:44.463Z,5.98
2019-03-25T09:48:12.630Z,6.29
2019-03-25T09:50:40.129Z,6.48
2019-03-25T09:53:07.594Z,6.35
2019-03-25T09:55:35.054Z,6.61
2019-03-25T09:58:02.503Z,6.54
2019-03-25T10:00:29.976Z,6.60
2019-03-25T10:02:57.464Z,6.68
2019-03-25T10:05:24.922Z,6.86
2019-03-25T10:07:52.372Z,6.59
2019-03-25T10:10:20.546Z,6.43
2019-03-25T10:12:47.992Z,6.28
2019-03-25T10:15:15.454Z,6.22
2019-03-25T10:17:42.896Z,6.22
2019-03-25T10:20:10.464Z,6.41
2019-03-25T10:22:37.914Z,6.31
2019-03-25T10:25:05.354Z,6.65
2019-03-25T10:27:32.817Z,6.67
2019-03-25T10:30:00.359Z,7.01
2019-03-25T10:32:27.725Z,7.22
2019-03-25T10:34:55.180Z,7.30
2019-03-25T10:37:22.647Z,7.34
2019-03-25T10:39:50.102Z,7.16
2019-03-25T10:42:17.571Z,7.24
2019-03-25T10:44:46.435Z,7.53
2019-03-25T10:47:14.073Z,7.35
2019-03-25T10:49:41.512Z,7.35
2019-03-25T10:52:08.993Z,7.17
2019-03-25T10:54:36.518Z,7.69
2019-03-25T10:57:03.914Z,7.45
2019-03-25T10:59:31.418Z,7.84
2019-03-25T11:01:58.912Z,8.03
2019-03-25T11:04:26.359Z,8.08
2019-03-25T11:06:53.812Z,7.97
2019-03-25T11:09:21.243Z,7.71
2019-03-25T11:11:48.743Z,7.77
2019-03-25T11:14:16.175Z,7.64
2019-03-25T11:16:43.627Z,7.45
2019-03-25T11:19:11.099Z,8.00
2019-03-25T11:21:38.577Z,7.69
2019-03-25T11:24:06.052Z,7.90
2019-03-25T11:26:33.505Z,7.99
2019-03-25T11:29:08.281Z,7.72
2019-03-25T11:31:30.358Z,7.96
2019-03-25T11:33:57.812Z,7.81
2019-03-25T11:36:26.068Z,7.85
2019-03-25T11:38:53.513Z,7.95
2019-03-25T11:41:20.940Z,7.99
2019-03-25T11:43:48.371Z,7.88
2019-03-25T11:46:15.864Z,8.23
2019-03-25T11:48:43.303Z,8.49
2019-03-25T11:51:10.790Z,8.52
2019-03-25T11:53:39.525Z,8.53
2019-03-25T11:56:07.107Z,8.17
2019-03-25T11:58:34.566Z,7.96
2019-03-25T12:01:01.990Z,8.45
2019-03-25T12:03:29.426Z,8.41
2019-03-25T12:05:57.913Z,8.50
2019-03-25T12:08:25.430Z,8.37
2019-03-25T12:10:52.890Z,8.41
2019-03-25T12:13:20.328Z,8.64
2019-03-25T12:15:47.802Z,8.69
2019-03-25T12:18:15.250Z,8.64
2019-03-25T12:20:42.687Z,8.84
2019-03-25T12:23:10.157Z,8.67
2019-03-25T12:25:37.610Z,8.78
2019-03-25T12:28:05.032Z,8.53
2019-03-25T12:30:32.495Z,8.41
2019-03-25T12:33:04.149Z,7.09
2019-03-25T12:35:27.411Z,7.48
2019-03-25T12:37:54.824Z,7.67
2019-03-25T12:40:23.063Z,8.13
2019-03-25T12:42:50.560Z,7.58
2019-03-25T12:45:17.994Z,8.12
2019-03-25T12:47:49.345Z,8.43
2019-03-25T12:50:16.779Z,8.47
2019-03-25T12:52:46.250Z,8.57
2019-03-25T12:55:13.698Z,8.85
2019-03-25T12:57:41.139Z,9.08
2019-03-25T13:00:08.559Z,9.01
2019-03-25T13:02:36.021Z,8.94
2019-03-25T13:05:03.460Z,8.66
2019-03-25T13:07:31.040Z,8.95
2019-03-25T13:09:58.517Z,8.27
2019-03-25T13:12:25.943Z,8.07
2019-03-25T13:14:53.377Z,8.33
2019-03-25T13:17:20.858Z,8.36
2019-03-25T13:19:48.266Z,7.76
2019-03-25T13:22:15.704Z,7.81
2019-03-25T13:24:43.128Z,7.64
2019-03-25T13:27:10.579Z,7.36
2019-03-25T13:29:38.023Z,7.08
2019-03-25T13:32:05.469Z,7.50
2019-03-25T13:34:32.931Z,7.80
2019-03-25T13:37:00.387Z,8.12
2019-03-25T13:39:28.379Z,8.22
2019-03-25T13:41:55.812Z,8.50
2019-03-25T13:44:23.251Z,8.26
2019-03-25T13:46:50.705Z,8.09
2019-03-25T13:49:18.157Z,8.03
2019-03-25T13:51:45.617Z,8.01
2019-03-25T13:54:13.566Z,7.55
2019-03-25T13:56:41.025Z,7.71
2019-03-25T13:59:08.439Z,7.53
2019-03-25T14:01:35.889Z,7.56
2019-03-25T14:04:03.323Z,7.63
2019-03-25T14:06:31.357Z,7.78
2019-03-25T14:08:58.958Z,7.35
2019-03-25T14:11:26.439Z,7.71
2019-03-25T14:13:53.874Z,7.77
2019-03-25T14:16:21.338Z,7.78
2019-03-25T14:18:48.788Z,7.72
2019-03-25T14:21:16.237Z,7.68
2019-03-25T14:23:43.740Z,7.98
2019-03-25T14:26:11.156Z,8.05
2019-03-25T14:28:38.564Z,8.22
2019-03-25T14:31:06.035Z,8.60
2019-03-25T14:33:33.475Z,8.67
2019-03-25T14:36:00.946Z,8.78
2019-03-25T14:38:29.449Z,8.81
2019-03-25T14:40:56.921Z,8.70
2019-03-25T14:43:24.395Z,8.23
2019-03-25T14:45:51.829Z,7.97
2019-03-25T14:48:19.273Z,8.22
2019-03-25T14:50:46.721Z,8.36
2019-03-25T14:53:14.162Z,7.94
2019-03-25T14:55:41.599Z,7.47
2019-03-25T14:58:09.075Z,6.84
2019-03-25T15:00:36.542Z,6.91
2019-03-25T15:03:04.026Z,7.27
2019-03-25T15:05:32.539Z,7.67
2019-03-25T15:08:00.076Z,7.23
2019-03-25T15:10:27.522Z,7.12
2019-03-25T15:12:54.988Z,7.33
2019-03-25T15:15:22.442Z,7.54
2019-03-25T15:17:49.895Z,7.85
2019-03-25T15:20:17.372Z,7.53
2019-03-25T15:22:44.832Z,7.95
2019-03-25T15:25:12.264Z,8.13
2019-03-25T15:27:40.519Z,8.39
2019-03-25T15:30:07.945Z,8.61
2019-03-25T15:32:35.426Z,8.77
2019-03-25T15:35:02.869Z,8.75
2019-03-25T15:37:30.691Z,8.88
2019-03-25T15:39:58.171Z,8.88
2019-03-25T15:42:25.644Z,8.32
2019-03-25T15:44:53.075Z,8.63
2019-03-25T15:47:20.778Z,8.52
2019-03-25T15:49:48.264Z,8.40
2019-03-25T15:52:15.720Z,8.27
2019-03-25T15:54:43.201Z,8.27
2019-03-25T15:57:10.631Z,8.29
2019-03-25T15:59:38.080Z,8.52
2019-03-25T16:02:05.563Z,8.51
2019-03-25T16:04:34.913Z,8.43
2019-03-25T16:07:02.396Z,8.23
2019-03-25T16:09:29.842Z,7.94
2019-03-25T16:11:57.304Z,8.29
2019-03-25T16:14:25.553Z,8.27
2019-03-25T16:16:53.074Z,8.13
2019-03-25T16:19:20.496Z,8.22
2019-03-25T16:21:47.915Z,8.23
2019-03-25T16:24:15.390Z,7.98
2019-03-25T16:26:43.891Z,8.43
2019-03-25T16:29:11.319Z,8.40
2019-03-25T16:31:38.790Z,8.59
2019-03-25T16:34:06.225Z,8.48
2019-03-25T16:36:33.692Z,8.55
2019-03-25T16:39:01.774Z,8.58
2019-03-25T16:41:29.195Z,8.67
2019-03-25T16:43:56.615Z,8.54
2019-03-25T16:46:24.052Z,8.18
2019-03-25T16:48:51.517Z,8.47
2019-03-25T16:51:18.964Z,8.67
2019-03-25T16:53:46.447Z,8.74
2019-03-25T16:56:13.980Z,8.65
2019-03-25T16:58:41.474Z,7.95
2019-03-25T17:01:10.325Z,8.22
2019-03-25T17:03:36.443Z,8.15
2019-03-25T17:06:03.902Z,8.13
2019-03-25T17:08:32.306Z,8.03
2019-03-25T17:10:59.772Z,8.20
2019-03-25T17:13:27.229Z,8.13
2019-03-25T17:15:54.683Z,8.22
2019-03-25T17:18:22.119Z,8.04
2019-03-25T17:20:49.595Z,7.92
2019-03-25T17:23:17.025Z,7.85
2019-03-25T17:25:52.684Z,7.91
2019-03-25T17:28:11.960Z,7.60
2019-03-25T17:30:39.395Z,7.63
2019-03-25T17:33:06.839Z,7.77
2019-03-25T17:35:34.313Z,7.57
2019-03-25T17:38:01.771Z,7.66
2019-03-25T17:40:29.267Z,8.05
2019-03-25T17:42:56.708Z,7.75
2019-03-25T17:45:24.179Z,7.82
2019-03-25T17:47:51.619Z,7.31
2019-03-25T17:50:19.084Z,7.38
2019-03-25T17:52:46.538Z,7.78
2019-03-25T17:55:14.011Z,8.12
2019-03-25T17:57:41.442Z,8.14
2019-03-25T18:00:08.870Z,8.25
2019-03-25T18:02:36.323Z,8.16
2019-03-25T18:05:03.837Z,7.69
2019-03-25T18:07:31.299Z,7.82
2019-03-25T18:09:59.056Z,7.50
2019-03-25T18:12:26.654Z,7.94
2019-03-25T18:14:54.088Z,7.38
2019-03-25T18:17:21.528Z,7.36
2019-03-25T18:19:49.009Z,7.51
2019-03-25T18:22:18.690Z,7.59
2019-03-25T18:24:46.205Z,7.49
2019-03-25T18:27:13.629Z,7.93
2019-03-25T18:29:41.087Z,7.93
2019-03-25T18:32:08.513Z,7.68
2019-03-25T18:34:35.962Z,7.45
2019-03-25T18:37:04.369Z,7.68
2019-03-25T18:39:32.005Z,7.59
2019-03-25T18:41:59.436Z,7.89
2019-03-25T18:44:28.600Z,7.85
2019-03-25T18:46:56.107Z,7.78
2019-03-25T18:49:23.536Z,7.98
2019-03-25T18:51:51.007Z,8.02
2019-03-25T18:54:18.472Z,8.19
2019-03-25T18:56:46.746Z,7.86
2019-03-25T18:59:14.284Z,8.17
2019-03-25T19:01:41.749Z,8.38
2019-03-25T19:04:09.187Z,8.13
2019-03-25T19:06:36.646Z,8.22
2019-03-25T19:09:05.000Z,8.17
2019-03-25T19:11:32.465Z,8.36
2019-03-25T19:14:00.029Z,8.15
2019-03-25T19:16:27.456Z,8.26
2019-03-25T19:18:54.903Z,8.12
2019-03-25T19:21:22.760Z,8.29
2019-03-25T19:23:50.672Z,7.93
2019-03-25T19:26:18.344Z,8.18
2019-03-25T19:28:45.755Z,8.18
2019-03-25T19:31:13.230Z,8.40
2019-03-25T19:33:40.714Z,8.30
2019-03-25T19:36:08.173Z,8.45
2019-03-25T19:38:35.630Z,8.53
2019-03-25T19:41:03.039Z,8.49
2019-03-25T19:43:30.468Z,8.09
2019-03-25T19:45:57.956Z,8.08
2019-03-25T19:48:25.506Z,8.17
2019-03-25T19:50:53.015Z,7.75
2019-03-25T19:53:21.438Z,8.11
2019-03-25T19:55:48.890Z,8.36
2019-03-25T19:58:17.344Z,7.82
2019-03-25T20:00:44.792Z,8.05
2019-03-25T20:03:12.276Z,8.37
2019-03-25T20:05:39.712Z,8.53
2019-03-25T20:08:07.206Z,8.53
2019-03-25T20:10:34.823Z,8.67
2019-03-25T20:13:02.174Z,8.64
2019-03-25T20:15:32.594Z,8.53
2019-03-25T20:17:57.119Z,8.65
2019-03-25T20:20:24.609Z,8.45
2019-03-25T20:22:52.059Z,8.70
2019-03-25T20:25:19.517Z,8.58
2019-03-25T20:27:47.060Z,8.11
2019-03-25T20:30:15.378Z,8.36
2019-03-25T20:32:42.996Z,8.37
2019-03-25T20:35:10.454Z,8.19
2019-03-25T20:37:37.924Z,8.34
2019-03-25T20:40:05.434Z,7.99
2019-03-25T20:42:33.769Z,7.79
2019-03-25T20:45:01.302Z,7.88
2019-03-25T20:47:28.829Z,7.65
2019-03-25T20:49:56.281Z,8.00
2019-03-25T20:52:24.616Z,8.17
2019-03-25T20:54:51.197Z,8.30
2019-03-25T20:57:18.650Z,8.18
2019-03-25T20:59:46.108Z,8.19
2019-03-25T21:02:13.651Z,8.31
2019-03-25T21:04:41.088Z,8.26
2019-03-25T21:07:08.579Z,8.37
2019-03-25T21:09:36.055Z,8.49
2019-03-25T21:12:03.496Z,8.61
2019-03-25T21:14:30.934Z,8.03
2019-03-25T21:16:58.885Z,8.41
2019-03-25T21:19:26.409Z,8.48
2019-03-25T21:21:53.928Z,8.52
2019-03-25T21:24:21.418Z,8.26
2019-03-25T21:26:48.844Z,8.59
2019-03-25T21:29:16.334Z,8.57
2019-03-25T21:31:43.881Z,8.61
2019-03-25T21:34:11.347Z,8.44
2019-03-25T21:36:38.826Z,8.23
2019-03-25T21:39:06.356Z,8.38
2019-03-25T21:41:33.809Z,7.57
2019-03-25T21:44:01.266Z,7.30
2019-03-25T21:46:28.899Z,7.86
2019-03-25T21:48:56.343Z,7.86
2019-03-25T21:51:23.735Z,7.67
2019-03-25T21:53:53.107Z,7.75
2019-03-25T21:56:18.799Z,7.74
2019-03-25T21:58:46.195Z,7.71
2019-03-25T22:01:13.634Z,8.05
2019-03-25T22:03:41.111Z,7.92
2019-03-25T22:06:08.548Z,7.15
2019-03-25T22:08:35.987Z,7.10
2019-03-25T22:11:03.450Z,7.63
2019-03-25T22:13:30.890Z,7.96
2019-03-25T22:15:58.363Z,7.38
2019-03-25T22:18:25.799Z,7.75
2019-03-25T22:20:54.193Z,7.97
2019-03-25T22:23:21.633Z,7.81
2019-03-25T22:25:50.135Z,7.94
2019-03-25T22:28:17.738Z,7.82
2019-03-25T22:30:45.193Z,7.49
2019-03-25T22:33:24.893Z,7.62
2019-03-25T22:35:40.147Z,7.34
2019-03-25T22:38:07.656Z,7.79
2019-03-25T22:40:35.074Z,7.71
2019-03-25T22:43:02.531Z,7.60
2019-03-25T22:45:29.988Z,7.81
2019-03-25T22:47:57.466Z,7.77
2019-03-25T22:50:25.825Z,7.98
2019-03-25T22:52:53.259Z,7.87
2019-03-25T22:55:23.348Z,7.67
2019-03-25T22:57:49.097Z,7.59
2019-03-25T23:00:16.548Z,7.53
2019-03-25T23:02:44.059Z,7.79
2019-03-25T23:05:11.517Z,7.62
2019-03-25T23:07:38.977Z,7.41
2019-03-25T23:10:06.445Z,6.89
2019-03-25T23:12:33.908Z,6.96
2019-03-25T23:15:01.487Z,6.75
2019-03-25T23:17:28.832Z,7.13
2019-03-25T23:19:56.282Z,7.29
2019-03-25T23:22:23.745Z,7.23
2019-03-25T23:24:51.221Z,6.82
2019-03-25T23:27:18.665Z,7.26
2019-03-25T23:29:46.153Z,7.17
2019-03-25T23:32:13.592Z,7.01
2019-03-25T23:34:41.109Z,7.08
2019-03-25T23:37:08.568Z,7.26
2019-03-25T23:39:37.050Z,7.32
2019-03-25T23:42:04.604Z,6.77
2019-03-25T23:44:32.080Z,6.86
2019-03-25T23:46:59.544Z,6.85
2019-03-25T23:49:26.996Z,6.99
2019-03-25T23:51:54.444Z,7.12
2019-03-25T23:54:21.927Z,7.24
2019-03-25T23:56:49.381Z,7.10
2019-03-25T23:59:16.840Z,7.07
